Time;durP1;ratioP1;P1;durP2;ratioP2;P2;SDS_P1;SDS_P2;PMS_P1;PMS_P2;Temp;Humidity;BMP_temperature;BMP_pressure;BME280_temperature;BME280_humidity;BME280_pressure;Samples;Min_cycle;Max_cycle;Signal;HPM_P1;HPM_P2
2023/10/26 00:00:39;;;;;;;5.97;2.50;;;;;;;7.76;100.00;92394.34;5039328;28;20474;-60
2023/10/26 00:03:06;;;;;;;4.83;2.27;;;;;;;7.76;100.00;92399.06;5041729;28;20045;-60
2023/10/26 00:05:32;;;;;;;4.65;2.15;;;;;;;7.65;100.00;92395.88;5055097;28;20053;-60
2023/10/26 00:07:59;;;;;;;5.00;2.13;;;;;;;7.60;100.00;92388.97;5060348;28;20045;-59
2023/10/26 00:10:26;;;;;;;5.03;2.20;;;;;;;7.58;100.00;92385.91;5059429;28;20044;-60
2023/10/26 00:12:53;;;;;;;11.45;6.18;;;;;;;7.53;100.00;92391.91;5056727;28;20040;-60
2023/10/26 00:15:20;;;;;;;4.90;2.60;;;;;;;7.46;100.00;92390.13;5038724;28;20057;-61
2023/10/26 00:17:46;;;;;;;4.32;1.88;;;;;;;7.35;100.00;92395.91;5041395;28;20049;-60
2023/10/26 00:20:13;;;;;;;4.10;1.92;;;;;;;7.33;100.00;92392.84;5060018;28;20056;-60
2023/10/26 00:22:40;;;;;;;3.35;1.50;;;;;;;7.41;100.00;92390.69;5056981;28;20044;-60
2023/10/26 00:25:07;;;;;;;4.50;1.92;;;;;;;7.34;100.00;92390.88;5056368;28;20049;-60
2023/10/26 00:27:40;;;;;;;5.10;2.37;;;;;;;7.40;100.00;92389.94;5056437;28;20045;-60
2023/10/26 00:30:11;;;;;;;5.65;1.63;;;;;;;7.38;100.00;92392.31;5059789;28;20532;-62
2023/10/26 00:32:38;;;;;;;3.33;1.77;;;;;;;7.39;100.00;92382.16;5057690;28;20390;-61
2023/10/26 00:35:05;;;;;;;3.22;1.50;;;;;;;7.27;100.00;92372.75;5056248;28;20049;-59
2023/10/26 00:37:32;;;;;;;3.30;1.73;;;;;;;7.28;100.00;92378.97;5056379;28;20535;-60
2023/10/26 00:39:59;;;;;;;3.03;1.53;;;;;;;7.28;100.00;92376.97;5042110;28;20040;-60
2023/10/26 00:42:26;;;;;;;5.93;2.00;;;;;;;7.25;100.00;92388.78;5059407;28;20048;-61
2023/10/26 00:44:56;;;;;;;4.00;2.10;;;;;;;7.18;100.00;92391.69;5040926;28;20475;-60
2023/10/26 00:47:25;;;;;;;4.00;1.90;;;;;;;7.20;100.00;92387.34;5059224;28;20057;-59
2023/10/26 00:49:54;;;;;;;3.08;1.83;;;;;;;7.24;100.00;92389.97;5058516;28;20139;-60
2023/10/26 00:52:22;;;;;;;3.63;1.70;;;;;;;7.26;100.00;92381.34;5059400;28;20041;-59
2023/10/26 00:54:50;;;;;;;3.95;1.70;;;;;;;7.35;100.00;92385.00;5038066;28;20513;-59
2023/10/26 00:57:19;;;;;;;4.13;1.80;;;;;;;7.35;100.00;92390.44;5055979;28;20061;-61
2023/10/26 00:59:47;;;;;;;3.28;1.55;;;;;;;7.37;100.00;92376.38;5057876;28;20059;-60
2023/10/26 01:02:15;;;;;;;3.40;1.80;;;;;;;7.10;100.00;92374.78;5057342;28;20094;-60
2023/10/26 01:04:42;;;;;;;3.77;2.23;;;;;;;6.93;100.00;92376.75;5047891;28;20053;-61
2023/10/26 01:07:10;;;;;;;3.78;1.90;;;;;;;7.04;100.00;92376.47;5059416;28;20078;-61
2023/10/26 01:09:37;;;;;;;3.83;2.00;;;;;;;7.05;100.00;92371.78;5050062;28;20052;-61
2023/10/26 01:12:04;;;;;;;4.20;1.90;;;;;;;6.98;100.00;92373.53;5060113;28;20054;-59
2023/10/26 01:14:31;;;;;;;3.42;1.75;;;;;;;6.98;100.00;92373.53;5064193;28;20074;-59
2023/10/26 01:16:58;;;;;;;3.40;1.70;;;;;;;6.79;100.00;92368.94;5058751;28;20155;-60
2023/10/26 01:19:42;;;;;;;3.17;1.85;;;;;;;6.78;100.00;92367.41;5057645;28;20045;-61
2023/10/26 01:22:10;;;;;;;3.80;2.28;;;;;;;6.64;100.00;92370.50;5059179;28;20365;-60
2023/10/26 01:24:38;;;;;;;23.08;11.20;;;;;;;6.63;100.00;92366.25;5063576;28;20059;-62
2023/10/26 01:27:05;;;;;;;9.63;4.15;;;;;;;6.62;100.00;92365.50;5062495;28;20048;-59
2023/10/26 01:29:33;;;;;;;4.80;2.43;;;;;;;6.56;100.00;92372.63;5061540;28;20049;-60
2023/10/26 01:32:00;;;;;;;4.85;2.08;;;;;;;6.52;100.00;92361.06;5062592;28;20409;-60
2023/10/26 01:34:27;;;;;;;3.33;1.80;;;;;;;6.46;100.00;92366.28;5061716;28;20080;-59
2023/10/26 01:36:54;;;;;;;3.50;1.90;;;;;;;6.46;100.00;92365.50;5065486;28;20041;-60
2023/10/26 01:39:20;;;;;;;3.20;1.70;;;;;;;6.43;100.00;92360.91;5065934;28;20048;-64
2023/10/26 01:41:47;;;;;;;3.97;1.60;;;;;;;6.40;100.00;92352.41;5062378;28;20041;-61
2023/10/26 01:44:14;;;;;;;4.97;1.80;;;;;;;6.37;100.00;92347.78;5062311;28;20041;-61
2023/10/26 01:46:41;;;;;;;2.70;1.70;;;;;;;6.36;100.00;92357.19;5061153;28;20244;-59
2023/10/26 01:49:08;;;;;;;3.97;1.88;;;;;;;6.27;100.00;92357.00;5059683;28;20047;-60
2023/10/26 01:51:34;;;;;;;3.55;1.90;;;;;;;6.25;100.00;92351.22;5063538;28;20401;-60
2023/10/26 01:54:01;;;;;;;3.40;1.80;;;;;;;6.22;100.00;92343.91;5062295;28;20055;-60
2023/10/26 01:56:29;;;;;;;4.65;1.70;;;;;;;6.25;100.00;92336.84;5043752;28;20049;-62
2023/10/26 01:58:57;;;;;;;3.55;2.20;;;;;;;6.26;100.00;92344.59;5065523;28;20066;-59
2023/10/26 02:01:24;;;;;;;4.43;1.77;;;;;;;6.25;100.00;92339.56;5057331;28;20049;-59
2023/10/26 02:03:51;;;;;;;3.42;2.03;;;;;;;6.24;100.00;92343.47;5051794;28;20055;-60
2023/10/26 02:06:18;;;;;;;3.77;1.90;;;;;;;6.26;100.00;92346.53;5053928;28;20101;-61
2023/10/26 02:08:45;;;;;;;7.22;1.80;;;;;;;6.26;100.00;92344.59;5053906;28;20451;-60
2023/10/26 02:11:12;;;;;;;3.00;1.80;;;;;;;6.25;100.00;92343.03;5054164;28;20065;-60
2023/10/26 02:13:40;;;;;;;4.28;2.17;;;;;;;6.27;100.00;92340.66;5053955;28;20045;-61
2023/10/26 02:16:07;;;;;;;2.70;1.60;;;;;;;6.18;100.00;92343.22;5054096;28;20098;-60
2023/10/26 02:18:34;;;;;;;3.73;1.80;;;;;;;6.24;100.00;92349.69;5053942;28;20053;-62
2023/10/26 02:21:01;;;;;;;3.20;1.77;;;;;;;6.16;100.00;92346.38;5054045;28;20043;-63
2023/10/26 02:23:28;;;;;;;3.78;1.90;;;;;;;6.19;100.00;92342.03;5052849;28;20045;-61
2023/10/26 02:25:56;;;;;;;3.15;1.83;;;;;;;6.14;100.00;92342.53;5050400;28;20041;-63
2023/10/26 02:28:23;;;;;;;3.92;2.25;;;;;;;6.09;100.00;92338.34;5059243;28;20041;-61
2023/10/26 02:30:50;;;;;;;3.63;1.87;;;;;;;6.10;100.00;92323.56;5061960;28;20048;-61
2023/10/26 02:33:17;;;;;;;3.60;1.70;;;;;;;6.09;100.00;92329.44;5062715;28;20045;-59
2023/10/26 02:35:44;;;;;;;3.45;1.83;;;;;;;6.12;100.00;92325.88;5059598;28;20081;-60
2023/10/26 02:38:11;;;;;;;3.50;1.60;;;;;;;6.11;100.00;92329.75;5059119;28;20044;-59
2023/10/26 02:40:39;;;;;;;3.53;1.90;;;;;;;6.14;100.00;92320.75;5060635;28;20049;-59
2023/10/26 02:43:06;;;;;;;3.90;1.67;;;;;;;6.19;100.00;92322.94;5049652;28;20043;-60
2023/10/26 02:45:34;;;;;;;3.45;1.60;;;;;;;6.26;100.00;92317.34;5058622;28;20261;-60
2023/10/26 02:48:02;;;;;;;3.38;1.73;;;;;;;6.37;100.00;92317.81;5055268;28;20040;-60
2023/10/26 02:50:30;;;;;;;3.75;1.90;;;;;;;6.44;100.00;92316.09;5061410;28;20105;-61
2023/10/26 02:52:59;;;;;;;3.97;1.90;;;;;;;6.49;100.00;92310.16;5058615;28;20086;-59
2023/10/26 02:55:25;;;;;;;4.00;2.00;;;;;;;6.55;100.00;92322.06;5058988;28;20505;-61
2023/10/26 02:57:52;;;;;;;3.80;2.08;;;;;;;6.68;100.00;92313.94;5069146;28;20067;-60
2023/10/26 03:00:19;;;;;;;3.25;2.08;;;;;;;6.80;100.00;92314.00;5070172;28;20044;-61
2023/10/26 03:02:47;;;;;;;3.45;1.73;;;;;;;6.91;100.00;92312.94;5046703;28;20111;-59
2023/10/26 03:05:14;;;;;;;2.95;1.95;;;;;;;7.02;100.00;92307.94;5059721;28;20041;-60
2023/10/26 03:07:45;;;;;;;2.90;1.60;;;;;;;7.11;100.00;92312.78;5069649;28;20055;-60
2023/10/26 03:10:12;;;;;;;2.70;1.50;;;;;;;7.15;100.00;92308.00;5070131;28;20076;-61
2023/10/26 03:12:39;;;;;;;3.85;2.00;;;;;;;7.26;100.00;92308.44;5069554;28;20172;-60
2023/10/26 03:15:07;;;;;;;3.60;1.90;;;;;;;7.23;100.00;92303.88;5070141;28;20075;-60
2023/10/26 03:17:33;;;;;;;5.10;1.92;;;;;;;7.24;100.00;92321.75;5069379;28;20067;-60
2023/10/26 03:20:00;;;;;;;4.10;1.70;;;;;;;7.30;100.00;92313.81;5052260;28;20097;-62
2023/10/26 03:22:27;;;;;;;3.80;1.80;;;;;;;7.39;100.00;92317.41;5069196;28;20053;-60
2023/10/26 03:24:54;;;;;;;3.45;2.10;;;;;;;7.55;100.00;92324.00;5069660;28;20097;-60
2023/10/26 03:27:21;;;;;;;4.22;2.25;;;;;;;7.60;100.00;92312.53;5069780;28;20045;-60
2023/10/26 03:29:47;;;;;;;4.13;1.90;;;;;;;7.64;100.00;92302.25;5069024;28;20032;-60
2023/10/26 03:32:14;;;;;;;3.17;1.60;;;;;;;7.55;100.00;92308.38;5069685;28;20055;-61
2023/10/26 03:34:41;;;;;;;3.42;1.65;;;;;;;7.67;100.00;92309.59;5069107;28;20147;-60
2023/10/26 03:37:08;;;;;;;6.47;3.60;;;;;;;7.67;100.00;92309.59;5068532;28;20048;-60
2023/10/26 03:39:35;;;;;;;5.70;3.13;;;;;;;7.64;100.00;92298.78;5051254;28;20063;-61
2023/10/26 03:42:02;;;;;;;5.90;3.45;;;;;;;7.70;100.00;92305.97;5069643;28;20047;-60
2023/10/26 03:44:29;;;;;;;4.33;2.23;;;;;;;7.69;100.00;92314.63;5068640;28;20044;-59
2023/10/26 03:46:56;;;;;;;3.67;1.70;;;;;;;7.77;100.00;92305.03;5069534;28;20048;-61
2023/10/26 03:49:22;;;;;;;4.50;1.85;;;;;;;7.80;100.00;92310.34;5051521;28;20051;-60
2023/10/26 03:51:49;;;;;;;5.18;3.00;;;;;;;7.85;100.00;92319.97;5069057;28;20028;-60
2023/10/26 03:54:16;;;;;;;4.13;1.98;;;;;;;7.88;100.00;92324.56;5069308;28;20044;-60
2023/10/26 03:56:43;;;;;;;52.30;28.57;;;;;;;7.95;100.00;92318.88;5050837;28;20044;-60
2023/10/26 03:59:10;;;;;;;27.55;14.15;;;;;;;8.02;100.00;92325.31;5068777;28;20058;-61
2023/10/26 04:01:36;;;;;;;10.52;4.95;;;;;;;8.06;100.00;92325.97;5050677;28;20053;-60
2023/10/26 04:04:03;;;;;;;4.88;2.33;;;;;;;8.08;100.00;92320.84;5068818;28;20099;-62
2023/10/26 04:06:30;;;;;;;5.20;2.40;;;;;;;8.08;100.00;92307.94;5068532;28;20040;-60
2023/10/26 04:08:57;;;;;;;4.87;2.13;;;;;;;7.98;100.00;92322.69;5050534;28;20036;-60
2023/10/26 04:11:24;;;;;;;4.95;2.28;;;;;;;8.06;100.00;92315.06;5068680;28;20041;-60
2023/10/26 04:13:53;;;;;;;3.78;2.15;;;;;;;8.11;100.00;92320.72;5067915;28;20045;-62
2023/10/26 04:16:21;;;;;;;3.55;2.08;;;;;;;8.17;100.00;92318.22;5050815;28;20048;-60
2023/10/26 04:18:48;;;;;;;5.47;2.35;;;;;;;8.19;100.00;92310.34;5067912;28;20041;-60
2023/10/26 04:21:15;;;;;;;3.20;1.70;;;;;;;8.05;100.00;92302.56;5068784;28;20449;-60
2023/10/26 04:23:42;;;;;;;5.22;1.98;;;;;;;8.05;100.00;92299.84;5068169;28;20043;-63
2023/10/26 04:26:11;;;;;;;4.07;1.92;;;;;;;8.17;100.00;92299.09;5068829;28;20450;-60
2023/10/26 04:28:38;;;;;;;3.10;1.80;;;;;;;8.24;100.00;92298.09;5067534;28;20070;-61
2023/10/26 04:31:17;;;;;;;3.88;1.70;;;;;;;8.26;100.00;92287.47;5052245;28;20101;-60
2023/10/26 04:33:44;;;;;;;3.73;2.00;;;;;;;8.30;100.00;92299.81;5067959;28;20036;-60
2023/10/26 04:36:11;;;;;;;4.75;2.33;;;;;;;8.32;100.00;92300.13;5050660;28;20417;-62
2023/10/26 04:38:39;;;;;;;4.15;2.58;;;;;;;8.25;100.00;92300.38;5066295;28;20046;-60
2023/10/26 04:41:05;;;;;;;7.60;4.50;;;;;;;8.24;100.00;92292.63;5068039;28;20063;-60
2023/10/26 04:43:32;;;;;;;9.55;6.60;;;;;;;8.17;100.00;92288.16;5067783;28;20044;-61
2023/10/26 04:45:59;;;;;;;8.20;5.30;;;;;;;8.22;100.00;92287.59;5050471;28;20048;-62
2023/10/26 04:48:26;;;;;;;7.30;4.40;;;;;;;8.25;100.00;92281.25;5057137;28;20044;-60
2023/10/26 04:50:53;;;;;;;6.97;4.28;;;;;;;8.27;100.00;92284.31;5066956;28;20754;-59
2023/10/26 04:53:20;;;;;;;6.05;3.45;;;;;;;8.14;100.00;92281.59;5068120;28;20041;-59
2023/10/26 04:55:46;;;;;;;5.25;2.60;;;;;;;8.24;100.00;92278.97;5067203;28;20727;-60
2023/10/26 04:58:14;;;;;;;4.77;2.53;;;;;;;8.31;100.00;92278.72;5068134;28;20048;-62
2023/10/26 05:00:40;;;;;;;4.95;2.67;;;;;;;8.35;100.00;92284.81;5067482;28;20113;-60
2023/10/26 05:03:07;;;;;;;6.47;2.50;;;;;;;8.31;100.00;92276.75;5054783;28;20041;-61
2023/10/26 05:05:34;;;;;;;47.50;24.85;;;;;;;8.26;100.00;92269.09;5067144;28;20068;-60
2023/10/26 05:08:01;;;;;;;10.93;6.13;;;;;;;8.25;100.00;92273.06;5067932;28;20512;-59
2023/10/26 05:10:28;;;;;;;8.50;5.23;;;;;;;8.34;100.00;92267.66;5067444;28;20511;-61
2023/10/26 05:12:55;;;;;;;7.53;4.80;;;;;;;8.35;100.00;92265.69;5050072;28;20039;-60
2023/10/26 05:15:21;;;;;;;9.27;6.30;;;;;;;8.31;100.00;92265.81;5053652;28;20075;-61
2023/10/26 05:17:48;;;;;;;10.15;5.93;;;;;;;8.35;100.00;92258.28;5066989;28;20105;-60
2023/10/26 05:20:15;;;;;;;9.93;6.53;;;;;;;8.34;100.00;92255.97;5067789;28;20056;-60
2023/10/26 05:22:42;;;;;;;11.87;6.70;;;;;;;8.38;100.00;92260.09;5067175;28;20047;-60
2023/10/26 05:25:11;;;;;;;10.05;6.20;;;;;;;8.31;100.00;92254.91;5050179;28;20126;-60
2023/10/26 05:27:38;;;;;;;8.90;5.68;;;;;;;8.43;100.00;92263.50;5067194;28;20429;-62
2023/10/26 05:30:05;;;;;;;5.85;3.72;;;;;;;8.44;100.00;92256.84;5067833;28;20044;-61
2023/10/26 05:32:32;;;;;;;6.95;3.65;;;;;;;8.49;100.00;92256.28;5067016;28;20121;-60
2023/10/26 05:34:59;;;;;;;8.03;5.33;;;;;;;8.46;100.00;92249.72;5067964;28;20488;-60
2023/10/26 05:37:26;;;;;;;7.75;5.00;;;;;;;8.49;100.00;92237.13;5067778;28;20055;-59
2023/10/26 05:39:53;;;;;;;6.35;4.03;;;;;;;8.54;100.00;92244.78;5048884;28;21821;-60
2023/10/26 05:42:20;;;;;;;6.07;4.00;;;;;;;8.62;100.00;92243.31;5067458;28;20446;-60
2023/10/26 05:44:47;;;;;;;5.75;3.65;;;;;;;8.59;100.00;92230.53;5067151;28;20117;-60
2023/10/26 05:47:15;;;;;;;5.93;3.30;;;;;;;8.60;100.00;92232.81;5067456;28;20093;-60
2023/10/26 05:49:47;;;;;;;4.95;3.20;;;;;;;8.57;100.00;92220.06;5066975;28;20056;-60
2023/10/26 05:52:14;;;;;;;6.47;3.90;;;;;;;8.60;100.00;92227.34;5067308;28;20048;-60
2023/10/26 05:54:41;;;;;;;7.10;3.60;;;;;;;8.53;100.00;92205.75;5067085;28;20044;-61
2023/10/26 05:57:08;;;;;;;6.78;4.13;;;;;;;8.62;100.00;92207.78;5049798;28;20041;-61
2023/10/26 05:59:35;;;;;;;9.77;4.00;;;;;;;8.66;100.00;92205.69;5068307;28;20105;-61
2023/10/26 06:02:02;;;;;;;6.45;3.95;;;;;;;8.60;100.00;92212.94;5068630;28;20489;-60
2023/10/26 06:04:29;;;;;;;7.28;3.80;;;;;;;8.58;100.00;92215.34;5070103;28;20513;-60
2023/10/26 06:06:56;;;;;;;5.88;3.67;;;;;;;8.62;100.00;92202.31;5071224;28;20495;-60
2023/10/26 06:09:24;;;;;;;6.85;3.70;;;;;;;8.61;100.00;92208.97;5071382;28;20045;-61
2023/10/26 06:11:51;;;;;;;6.03;3.50;;;;;;;8.63;100.00;92200.34;5070303;28;20048;-61
2023/10/26 06:14:18;;;;;;;7.15;3.88;;;;;;;8.67;100.00;92196.28;5071153;28;20047;-60
2023/10/26 06:16:45;;;;;;;7.40;3.92;;;;;;;8.57;100.00;92195.44;5070277;28;20438;-60
2023/10/26 06:19:12;;;;;;;5.72;3.38;;;;;;;8.72;100.00;92219.56;5070970;28;20040;-62
2023/10/26 06:21:39;;;;;;;5.57;3.35;;;;;;;8.71;100.00;92213.31;5070307;28;20055;-62
2023/10/26 06:24:06;;;;;;;7.53;3.70;;;;;;;8.70;100.00;92203.59;5071123;28;20041;-61
2023/10/26 06:26:33;;;;;;;5.55;3.20;;;;;;;8.72;100.00;92206.63;5070070;28;20466;-61
2023/10/26 06:29:01;;;;;;;5.95;3.55;;;;;;;8.65;100.00;92215.09;5053210;28;20570;-61
2023/10/26 06:31:27;;;;;;;9.77;3.72;;;;;;;8.71;100.00;92207.84;5070156;28;20531;-61
2023/10/26 06:33:54;;;;;;;7.05;4.90;;;;;;;8.69;100.00;92209.50;5070709;28;20093;-61
2023/10/26 06:36:21;;;;;;;6.63;4.20;;;;;;;8.73;100.00;92219.13;5070852;28;20044;-61
2023/10/26 06:38:48;;;;;;;7.38;3.83;;;;;;;8.66;100.00;92219.34;5051463;28;20121;-62
2023/10/26 06:41:14;;;;;;;7.07;4.28;;;;;;;8.68;100.00;92222.41;5070810;28;20044;-61
2023/10/26 06:43:41;;;;;;;7.82;5.20;;;;;;;8.71;100.00;92227.00;5069536;28;20045;-61
2023/10/26 06:46:09;;;;;;;9.75;5.50;;;;;;;8.73;100.00;92221.84;5055854;28;20052;-61
2023/10/26 06:48:36;;;;;;;8.07;4.77;;;;;;;8.71;100.00;92226.22;5070235;28;20045;-61
2023/10/26 06:51:04;;;;;;;7.68;4.75;;;;;;;8.69;100.00;92220.44;5070066;28;20045;-61
2023/10/26 06:53:31;;;;;;;10.02;5.07;;;;;;;8.79;100.00;92222.03;5070127;28;20079;-62
2023/10/26 06:55:58;;;;;;;7.82;4.78;;;;;;;8.70;100.00;92222.72;5070292;28;20402;-61
2023/10/26 06:58:25;;;;;;;6.03;4.00;;;;;;;8.62;100.00;92221.44;5070359;28;20050;-63
2023/10/26 07:00:52;;;;;;;6.20;3.97;;;;;;;8.63;100.00;92222.22;5050395;28;20657;-61
2023/10/26 07:03:20;;;;;;;6.45;4.10;;;;;;;8.58;100.00;92218.09;5069428;28;20097;-61
2023/10/26 07:05:47;;;;;;;6.95;4.22;;;;;;;8.57;100.00;92219.28;5069480;28;20528;-61
2023/10/26 07:08:16;;;;;;;7.45;3.75;;;;;;;8.60;100.00;92221.13;5070007;28;20394;-61
2023/10/26 07:10:42;;;;;;;6.63;3.40;;;;;;;8.66;100.00;92210.41;5069241;28;20040;-61
2023/10/26 07:13:09;;;;;;;5.10;3.00;;;;;;;8.64;100.00;92207.34;5069944;28;20414;-61
2023/10/26 07:15:36;;;;;;;5.45;3.00;;;;;;;8.75;100.00;92204.97;5052082;28;20058;-60
2023/10/26 07:18:04;;;;;;;4.40;2.60;;;;;;;8.73;100.00;92204.66;5069700;28;20047;-61
2023/10/26 07:20:32;;;;;;;4.10;2.25;;;;;;;8.74;100.00;92208.94;5069282;28;20420;-60
2023/10/26 07:22:58;;;;;;;4.35;2.47;;;;;;;8.76;100.00;92206.50;5070017;28;20093;-61
2023/10/26 07:25:25;;;;;;;3.80;1.43;;;;;;;8.76;100.00;92204.53;5069866;28;20400;-60
2023/10/26 07:27:52;;;;;;;3.33;1.98;;;;;;;8.87;100.00;92214.31;5068800;28;20689;-60
2023/10/26 07:30:19;;;;;;;3.08;1.70;;;;;;;8.83;100.00;92214.44;5069482;28;20493;-60
2023/10/26 07:32:46;;;;;;;2.60;1.40;;;;;;;8.96;100.00;92217.13;5069282;28;20056;-61
2023/10/26 07:35:14;;;;;;;2.20;1.10;;;;;;;9.02;100.00;92220.06;5056179;28;20053;-61
2023/10/26 07:37:42;;;;;;;2.70;1.40;;;;;;;9.00;100.00;92213.03;5069083;28;20059;-60
2023/10/26 07:40:11;;;;;;;2.10;1.05;;;;;;;8.99;100.00;92213.47;5069500;28;20424;-60
2023/10/26 07:42:56;;;;;;;2.30;1.25;;;;;;;9.00;100.00;92202.09;5068738;28;20833;-62
2023/10/26 07:45:24;;;;;;;2.00;0.80;;;;;;;9.07;100.00;92206.53;5069517;28;20501;-61
2023/10/26 07:47:51;;;;;;;2.50;1.40;;;;;;;9.02;100.00;92212.59;5068688;28;20360;-61
2023/10/26 07:50:22;;;;;;;2.77;1.43;;;;;;;9.03;100.00;92214.13;5069331;28;20047;-60
2023/10/26 07:52:49;;;;;;;2.35;1.40;;;;;;;9.09;100.00;92225.25;5068613;28;20109;-62
2023/10/26 07:55:17;;;;;;;3.13;1.42;;;;;;;9.19;100.00;92227.59;5069127;28;20048;-61
2023/10/26 07:57:45;;;;;;;2.70;1.40;;;;;;;9.17;100.00;92231.97;5067538;28;20052;-61
2023/10/26 08:00:12;;;;;;;3.25;1.33;;;;;;;9.17;100.00;92237.47;5069233;28;20055;-61
2023/10/26 08:02:39;;;;;;;2.93;1.40;;;;;;;9.28;100.00;92228.88;5066455;28;20145;-61
2023/10/26 08:05:09;;;;;;;2.97;1.52;;;;;;;9.19;100.00;92238.56;5064263;28;20041;-61
2023/10/26 08:07:38;;;;;;;2.55;1.42;;;;;;;9.13;100.00;92223.91;5061802;28;20129;-60
2023/10/26 08:10:06;;;;;;;2.33;1.15;;;;;;;9.09;100.00;92217.03;5067983;28;20041;-61
2023/10/26 08:12:33;;;;;;;2.83;1.10;;;;;;;9.05;100.00;92228.09;5068180;28;20692;-61
2023/10/26 08:15:01;;;;;;;2.40;1.13;;;;;;;9.11;100.00;92234.53;5051371;28;20036;-61
2023/10/26 08:17:48;;;;;;;2.20;1.05;;;;;;;9.14;100.00;92232.91;5067640;28;20093;-61
2023/10/26 08:20:16;;;;;;;2.50;1.20;;;;;;;9.23;100.00;92229.44;5068616;28;20053;-61
2023/10/26 08:22:43;;;;;;;2.42;1.20;;;;;;;9.22;100.00;92211.50;5067415;28;20497;-61
2023/10/26 08:25:11;;;;;;;2.30;1.23;;;;;;;9.31;100.00;92214.28;5068810;28;20052;-61
2023/10/26 08:27:39;;;;;;;1.97;0.90;;;;;;;9.45;100.00;92213.72;5068034;28;20048;-61
2023/10/26 08:30:06;;;;;;;2.17;1.00;;;;;;;9.54;100.00;92221.97;5068489;28;20038;-62
2023/10/26 08:32:33;;;;;;;1.90;0.90;;;;;;;9.40;100.00;92223.28;5067809;28;20048;-60
2023/10/26 08:35:00;;;;;;;2.35;1.20;;;;;;;9.44;100.00;92227.84;5050647;28;20093;-60
2023/10/26 08:37:28;;;;;;;2.08;1.00;;;;;;;9.62;100.00;92236.16;5068195;28;20489;-60
2023/10/26 08:39:56;;;;;;;2.27;0.90;;;;;;;9.65;100.00;92231.75;5068418;28;20075;-60
2023/10/26 08:42:23;;;;;;;2.25;0.80;;;;;;;9.87;100.00;92226.97;5068373;28;20504;-61
2023/10/26 08:44:54;;;;;;;2.00;0.90;;;;;;;9.94;100.00;92226.69;5067463;28;20044;-62
2023/10/26 08:47:24;;;;;;;2.13;0.80;;;;;;;10.41;100.00;92244.00;5068379;28;20633;-60
2023/10/26 08:49:54;;;;;;;2.78;0.90;;;;;;;10.89;100.00;92225.13;5049734;28;20141;-62
2023/10/26 08:52:41;;;;;;;2.00;0.87;;;;;;;10.73;100.00;92215.22;5067683;28;20059;-62
2023/10/26 08:55:08;;;;;;;2.20;0.90;;;;;;;11.30;100.00;92222.16;5068213;28;20036;-62
2023/10/26 08:57:46;;;;;;;1.88;0.85;;;;;;;11.26;100.00;92225.06;5050012;28;20048;-61
2023/10/26 09:00:14;;;;;;;1.63;0.70;;;;;;;11.51;100.00;92225.91;5068341;28;20054;-59
2023/10/26 09:02:41;;;;;;;2.10;1.05;;;;;;;11.82;100.00;92225.63;5065099;28;20036;-62
2023/10/26 09:05:10;;;;;;;2.00;1.00;;;;;;;11.68;100.00;92235.31;5067830;28;20470;-62
2023/10/26 09:07:38;;;;;;;1.60;0.60;;;;;;;11.59;100.00;92230.63;5067407;28;20048;-61
2023/10/26 09:10:05;;;;;;;1.70;0.70;;;;;;;11.65;100.00;92228.00;5066756;28;20485;-62
2023/10/26 09:12:32;;;;;;;1.80;0.73;;;;;;;11.63;100.00;92244.19;5067415;28;20048;-61
2023/10/26 09:15:06;;;;;;;1.63;0.70;;;;;;;11.68;100.00;92238.06;5068191;28;20089;-62
2023/10/26 09:17:33;;;;;;;1.80;0.70;;;;;;;11.60;100.00;92232.13;5067690;28;20478;-63
2023/10/26 09:20:17;;;;;;;1.67;0.52;;;;;;;11.38;100.00;92245.31;5054769;28;20049;-61
2023/10/26 09:22:44;;;;;;;1.90;1.00;;;;;;;11.43;100.00;92238.44;5067322;28;20126;-61
2023/10/26 09:25:13;;;;;;;1.90;0.90;;;;;;;11.45;100.00;92228.53;5067838;28;20495;-62
2023/10/26 09:27:41;;;;;;;2.10;1.20;;;;;;;11.44;100.00;92235.22;5067407;28;20059;-62
2023/10/26 09:30:29;;;;;;;4.90;3.23;;;;;;;11.35;100.00;92238.00;5067491;28;20041;-62
2023/10/26 09:32:56;;;;;;;3.35;1.70;;;;;;;11.22;100.00;92245.66;5066772;28;21605;-62
2023/10/26 09:35:25;;;;;;;2.97;1.98;;;;;;;11.34;100.00;92248.22;5071897;28;20048;-61
2023/10/26 09:37:51;;;;;;;9.15;6.03;;;;;;;11.30;100.00;92244.13;5071326;28;20394;-62
2023/10/26 09:40:22;;;;;;;3.03;1.65;;;;;;;11.43;100.00;92255.69;5054025;28;20056;-62
2023/10/26 09:42:50;;;;;;;3.83;2.30;;;;;;;11.55;100.00;92242.97;5071628;28;20381;-63
2023/10/26 09:45:18;;;;;;;5.30;2.83;;;;;;;11.56;100.00;92258.25;5053813;28;20147;-62
2023/10/26 09:47:46;;;;;;;3.53;2.00;;;;;;;11.55;100.00;92248.47;5071155;28;20045;-62
2023/10/26 09:50:14;;;;;;;3.03;1.67;;;;;;;11.71;100.00;92242.63;5071494;28;20040;-64
2023/10/26 09:52:42;;;;;;;2.80;1.30;;;;;;;11.80;100.00;92250.06;5071424;28;20052;-62
2023/10/26 09:55:10;;;;;;;3.17;1.20;;;;;;;12.03;100.00;92251.38;5071307;28;20040;-64
2023/10/26 09:57:48;;;;;;;4.03;1.70;;;;;;;12.18;100.00;92246.72;5070654;28;20117;-61
2023/10/26 10:00:17;;;;;;;2.42;1.40;;;;;;;11.99;100.00;92253.53;5071599;28;20067;-63
2023/10/26 10:02:44;;;;;;;3.50;1.58;;;;;;;11.80;100.00;92250.06;5068592;28;20052;-62
2023/10/26 10:05:37;;;;;;;3.38;1.90;;;;;;;11.74;100.00;92265.66;5059003;28;20071;-61
2023/10/26 10:08:05;;;;;;;3.13;1.40;;;;;;;11.79;100.00;92271.31;5023681;28;20692;-61
2023/10/26 10:10:33;;;;;;;4.50;2.22;;;;;;;11.58;100.00;92264.78;5030871;28;20057;-62
2023/10/26 10:13:01;;;;;;;4.20;2.95;;;;;;;11.35;100.00;92268.22;5031634;28;20276;-62
2023/10/26 10:15:39;;;;;;;7.07;3.67;;;;;;;11.50;100.00;92268.34;5030767;28;20512;-62
2023/10/26 10:18:09;;;;;;;4.10;1.20;;;;;;;11.63;100.00;92255.19;5031533;28;20043;-62
2023/10/26 10:20:40;;;;;;;6.77;1.30;;;;;;;12.02;100.00;92247.09;5029607;28;20411;-60
2023/10/26 10:23:07;;;;;;;3.10;1.20;;;;;;;12.18;100.00;92240.47;5031290;28;20107;-59
2023/10/26 10:25:50;;;;;;;4.68;2.10;;;;;;;12.27;100.00;92240.41;5030618;28;20043;-60
2023/10/26 10:28:18;;;;;;;4.75;2.70;;;;;;;12.38;100.00;92248.91;5031037;28;20056;-59
2023/10/26 10:31:03;;;;;;;4.57;1.30;;;;;;;12.55;100.00;92245.72;5030270;28;20103;-60
2023/10/26 10:33:30;;;;;;;5.27;1.80;;;;;;;12.52;100.00;92241.19;5030719;28;20355;-60
2023/10/26 10:36:02;;;;;;;4.72;1.65;;;;;;;12.64;100.00;92234.66;5030576;28;20548;-61
2023/10/26 10:38:29;;;;;;;5.38;1.70;;;;;;;12.66;100.00;92240.47;5030487;28;20041;-62
2023/10/26 10:41:06;;;;;;;3.60;1.42;;;;;;;12.73;100.00;92236.59;5031168;28;20052;-62
2023/10/26 10:43:43;;;;;;;5.60;1.67;;;;;;;12.96;100.00;92238.53;5030207;28;20053;-64
2023/10/26 10:46:15;;;;;;;8.03;2.73;;;;;;;13.08;100.00;92235.97;5030235;28;20052;-60
2023/10/26 10:49:03;;;;;;;5.25;2.00;;;;;;;13.40;100.00;92228.84;5030471;28;20540;-61
2023/10/26 10:51:34;;;;;;;6.90;1.73;;;;;;;13.85;100.00;92224.06;5030055;28;20159;-59
2023/10/26 10:54:04;;;;;;;6.35;1.70;;;;;;;14.16;100.00;92231.00;5030658;28;20059;-60
2023/10/26 10:56:48;;;;;;;5.93;1.92;;;;;;;15.40;100.00;92242.84;5030089;28;20099;-60
2023/10/26 10:59:19;;;;;;;6.93;1.70;;;;;;;17.21;100.00;92220.63;5030448;28;20498;-60
2023/10/26 11:01:48;;;;;;;6.88;2.17;;;;;;;17.37;100.00;92219.91;5030097;28;20053;-64
2023/10/26 11:04:15;;;;;;;7.07;1.70;;;;;;;18.32;100.00;92221.22;5027964;28;20095;-63
2023/10/26 11:06:47;;;;;;;6.88;1.80;;;;;;;18.90;100.00;92203.94;5048074;28;20044;-60
2023/10/26 11:09:27;;;;;;;7.50;1.73;;;;;;;18.26;100.00;92209.38;5050459;28;20049;-60
2023/10/26 11:11:54;;;;;;;5.50;1.60;;;;;;;17.69;100.00;92210.63;5049487;28;20515;-60
2023/10/26 11:14:22;;;;;;;5.70;1.63;;;;;;;18.74;100.00;92207.50;5049893;28;20070;-60
2023/10/26 11:16:50;;;;;;;8.23;2.00;;;;;;;19.25;97.96;92207.31;5049845;28;20037;-60
2023/10/26 11:19:17;;;;;;;7.32;2.08;;;;;;;18.22;100.00;92216.47;5049968;28;20048;-60
2023/10/26 11:21:44;;;;;;;6.45;1.65;;;;;;;16.77;100.00;92219.94;5049411;28;20049;-60
2023/10/26 11:24:11;;;;;;;7.70;2.30;;;;;;;16.48;100.00;92212.75;5050157;28;20051;-60
2023/10/26 11:26:38;;;;;;;7.80;2.30;;;;;;;17.07;100.00;92214.03;5031715;28;20049;-60
2023/10/26 11:29:16;;;;;;;7.75;2.00;;;;;;;16.77;100.00;92202.56;5049953;28;20037;-61
2023/10/26 11:31:42;;;;;;;7.28;1.85;;;;;;;16.29;100.00;92206.84;5037232;28;20406;-60
2023/10/26 11:34:10;;;;;;;7.75;2.00;;;;;;;16.02;100.00;92207.41;5049933;28;20041;-60
2023/10/26 11:36:38;;;;;;;8.20;1.70;;;;;;;16.10;100.00;92198.19;5049408;28;20064;-60